sensor_id;sensor_type;location;lat;lon;timestamp;P1;durP1;ratioP1;P2;durP2;ratioP2
11865;SDS011;5992;52.744;6.898;2023-07-22T00:00:23;7.60;;;3.85;;
11865;SDS011;5992;52.744;6.898;2023-07-22T00:03:36;5.13;;;3.43;;
11865;SDS011;5992;52.744;6.898;2023-07-22T00:06:36;6.43;;;4.03;;
11865;SDS011;5992;52.744;6.898;2023-07-22T00:09:48;9.97;;;4.73;;
11865;SDS011;5992;52.744;6.898;2023-07-22T00:12:51;5.47;;;4.27;;
11865;SDS011;5992;52.744;6.898;2023-07-22T00:16:15;6.75;;;4.25;;
11865;SDS011;5992;52.744;6.898;2023-07-22T00:19:15;6.93;;;4.00;;
11865;SDS011;5992;52.744;6.898;2023-07-22T00:22:27;5.75;;;4.00;;
11865;SDS011;5992;52.744;6.898;2023-07-22T00:25:27;5.80;;;4.00;;
11865;SDS011;5992;52.744;6.898;2023-07-22T00:28:42;7.83;;;4.43;;
11865;SDS011;5992;52.744;6.898;2023-07-22T00:31:54;7.23;;;3.97;;
11865;SDS011;5992;52.744;6.898;2023-07-22T00:35:07;7.63;;;4.60;;
11865;SDS011;5992;52.744;6.898;2023-07-22T00:38:08;6.00;;;4.47;;
11865;SDS011;5992;52.744;6.898;2023-07-22T00:41:21;7.00;;;4.25;;
11865;SDS011;5992;52.744;6.898;2023-07-22T00:44:23;7.40;;;4.27;;
11865;SDS011;5992;52.744;6.898;2023-07-22T00:47:48;5.23;;;4.23;;
11865;SDS011;5992;52.744;6.898;2023-07-22T00:51:00;6.77;;;4.10;;
11865;SDS011;5992;52.744;6.898;2023-07-22T00:54:12;8.00;;;4.60;;
11865;SDS011;5992;52.744;6.898;2023-07-22T00:57:25;6.07;;;4.00;;
11865;SDS011;5992;52.744;6.898;2023-07-22T01:00:52;5.40;;;3.80;;
11865;SDS011;5992;52.744;6.898;2023-07-22T01:04:05;4.95;;;3.95;;
11865;SDS011;5992;52.744;6.898;2023-07-22T01:07:29;9.50;;;4.77;;
11865;SDS011;5992;52.744;6.898;2023-07-22T01:10:41;7.73;;;4.83;;
11865;SDS011;5992;52.744;6.898;2023-07-22T01:13:53;6.27;;;4.53;;
11865;SDS011;5992;52.744;6.898;2023-07-22T01:16:56;7.80;;;4.70;;
11865;SDS011;5992;52.744;6.898;2023-07-22T01:20:20;6.75;;;5.10;;
11865;SDS011;5992;52.744;6.898;2023-07-22T01:23:34;7.17;;;5.07;;
11865;SDS011;5992;52.744;6.898;2023-07-22T01:26:59;7.07;;;4.40;;
11865;SDS011;5992;52.744;6.898;2023-07-22T01:30:11;6.67;;;4.07;;
11865;SDS011;5992;52.744;6.898;2023-07-22T01:33:25;7.10;;;4.17;;
11865;SDS011;5992;52.744;6.898;2023-07-22T01:36:25;8.30;;;4.45;;
11865;SDS011;5992;52.744;6.898;2023-07-22T01:39:39;7.95;;;5.00;;
11865;SDS011;5992;52.744;6.898;2023-07-22T01:42:52;7.40;;;5.10;;
11865;SDS011;5992;52.744;6.898;2023-07-22T01:46:06;5.25;;;4.15;;
11865;SDS011;5992;52.744;6.898;2023-07-22T01:49:06;6.67;;;4.73;;
11865;SDS011;5992;52.744;6.898;2023-07-22T01:52:30;6.40;;;4.90;;
11865;SDS011;5992;52.744;6.898;2023-07-22T01:55:31;5.77;;;4.70;;
11865;SDS011;5992;52.744;6.898;2023-07-22T01:58:56;7.60;;;4.60;;
11865;SDS011;5992;52.744;6.898;2023-07-22T02:01:56;8.00;;;5.50;;
11865;SDS011;5992;52.744;6.898;2023-07-22T02:05:09;6.40;;;4.37;;
11865;SDS011;5992;52.744;6.898;2023-07-22T02:08:22;8.17;;;5.57;;
11865;SDS011;5992;52.744;6.898;2023-07-22T02:11:35;8.30;;;4.90;;
11865;SDS011;5992;52.744;6.898;2023-07-22T02:14:48;5.15;;;4.25;;
11865;SDS011;5992;52.744;6.898;2023-07-22T02:18:01;5.70;;;4.77;;
11865;SDS011;5992;52.744;6.898;2023-07-22T02:21:01;15.07;;;6.27;;
11865;SDS011;5992;52.744;6.898;2023-07-22T02:24:14;9.93;;;5.27;;
11865;SDS011;5992;52.744;6.898;2023-07-22T02:27:26;8.43;;;5.40;;
11865;SDS011;5992;52.744;6.898;2023-07-22T02:30:52;8.17;;;5.90;;
11865;SDS011;5992;52.744;6.898;2023-07-22T02:34:05;8.10;;;5.57;;
11865;SDS011;5992;52.744;6.898;2023-07-22T02:37:18;6.70;;;5.20;;
11865;SDS011;5992;52.744;6.898;2023-07-22T02:40:18;8.05;;;5.25;;
11865;SDS011;5992;52.744;6.898;2023-07-22T02:43:31;10.50;;;5.75;;
11865;SDS011;5992;52.744;6.898;2023-07-22T02:46:43;8.10;;;5.90;;
11865;SDS011;5992;52.744;6.898;2023-07-22T02:49:55;7.47;;;5.30;;
11865;SDS011;5992;52.744;6.898;2023-07-22T02:52:55;6.70;;;4.97;;
11865;SDS011;5992;52.744;6.898;2023-07-22T02:56:15;5.55;;;4.70;;
11865;SDS011;5992;52.744;6.898;2023-07-22T02:59:28;12.50;;;5.43;;
11865;SDS011;5992;52.744;6.898;2023-07-22T03:02:53;6.85;;;4.75;;
11865;SDS011;5992;52.744;6.898;2023-07-22T03:06:06;7.60;;;5.10;;
11865;SDS011;5992;52.744;6.898;2023-07-22T03:09:30;7.17;;;5.17;;
11865;SDS011;5992;52.744;6.898;2023-07-22T03:12:30;9.70;;;6.17;;
11865;SDS011;5992;52.744;6.898;2023-07-22T03:15:44;9.73;;;6.00;;
11865;SDS011;5992;52.744;6.898;2023-07-22T03:19:08;9.80;;;4.85;;
11865;SDS011;5992;52.744;6.898;2023-07-22T03:22:20;6.10;;;4.65;;
11865;SDS011;5992;52.744;6.898;2023-07-22T03:25:20;6.65;;;5.15;;
11865;SDS011;5992;52.744;6.898;2023-07-22T03:28:33;6.63;;;5.53;;
11865;SDS011;5992;52.744;6.898;2023-07-22T03:31:47;5.73;;;4.47;;
11865;SDS011;5992;52.744;6.898;2023-07-22T03:35:12;7.43;;;4.90;;
11865;SDS011;5992;52.744;6.898;2023-07-22T03:38:12;8.30;;;5.60;;
11865;SDS011;5992;52.744;6.898;2023-07-22T03:41:24;7.25;;;4.30;;
11865;SDS011;5992;52.744;6.898;2023-07-22T03:44:24;6.80;;;4.90;;
11865;SDS011;5992;52.744;6.898;2023-07-22T03:47:39;6.45;;;4.85;;
11865;SDS011;5992;52.744;6.898;2023-07-22T03:50:50;7.57;;;5.03;;
11865;SDS011;5992;52.744;6.898;2023-07-22T03:54:02;7.63;;;5.20;;
11865;SDS011;5992;52.744;6.898;2023-07-22T03:57:02;5.43;;;4.57;;
11865;SDS011;5992;52.744;6.898;2023-07-22T04:00:15;6.10;;;4.85;;
11865;SDS011;5992;52.744;6.898;2023-07-22T04:03:29;8.50;;;5.10;;
11865;SDS011;5992;52.744;6.898;2023-07-22T04:06:42;7.45;;;4.85;;
11865;SDS011;5992;52.744;6.898;2023-07-22T04:09:54;8.30;;;4.93;;
11865;SDS011;5992;52.744;6.898;2023-07-22T04:12:54;6.30;;;4.97;;
11865;SDS011;5992;52.744;6.898;2023-07-22T04:16:06;10.43;;;6.27;;
11865;SDS011;5992;52.744;6.898;2023-07-22T04:19:07;7.75;;;5.20;;
11865;SDS011;5992;52.744;6.898;2023-07-22T04:22:33;6.80;;;5.37;;
11865;SDS011;5992;52.744;6.898;2023-07-22T04:25:45;10.55;;;5.10;;
11865;SDS011;5992;52.744;6.898;2023-07-22T04:29:10;8.50;;;5.05;;
11865;SDS011;5992;52.744;6.898;2023-07-22T04:32:24;7.73;;;5.43;;
11865;SDS011;5992;52.744;6.898;2023-07-22T04:35:40;5.70;;;4.80;;
11865;SDS011;5992;52.744;6.898;2023-07-22T04:38:51;7.55;;;5.35;;
11865;SDS011;5992;52.744;6.898;2023-07-22T04:42:04;7.35;;;4.45;;
11865;SDS011;5992;52.744;6.898;2023-07-22T04:45:05;7.85;;;5.55;;
11865;SDS011;5992;52.744;6.898;2023-07-22T04:48:19;6.20;;;4.40;;
11865;SDS011;5992;52.744;6.898;2023-07-22T04:51:33;8.00;;;5.30;;
11865;SDS011;5992;52.744;6.898;2023-07-22T04:54:58;8.50;;;4.60;;
11865;SDS011;5992;52.744;6.898;2023-07-22T04:57:58;6.45;;;5.10;;
11865;SDS011;5992;52.744;6.898;2023-07-22T05:01:10;7.00;;;4.60;;
11865;SDS011;5992;52.744;6.898;2023-07-22T05:04:11;7.50;;;5.03;;
11865;SDS011;5992;52.744;6.898;2023-07-22T05:07:26;6.65;;;4.45;;
11865;SDS011;5992;52.744;6.898;2023-07-22T05:10:38;5.70;;;4.40;;
11865;SDS011;5992;52.744;6.898;2023-07-22T05:14:03;7.30;;;5.20;;
11865;SDS011;5992;52.744;6.898;2023-07-22T05:17:04;4.95;;;4.45;;
11865;SDS011;5992;52.744;6.898;2023-07-22T05:20:17;9.40;;;6.10;;
11865;SDS011;5992;52.744;6.898;2023-07-22T05:23:31;6.60;;;5.37;;
11865;SDS011;5992;52.744;6.898;2023-07-22T05:26:55;6.95;;;4.65;;
11865;SDS011;5992;52.744;6.898;2023-07-22T05:29:55;8.07;;;5.37;;
11865;SDS011;5992;52.744;6.898;2023-07-22T05:33:08;6.90;;;5.50;;
11865;SDS011;5992;52.744;6.898;2023-07-22T05:36:08;5.87;;;5.07;;
11865;SDS011;5992;52.744;6.898;2023-07-22T05:39:22;7.25;;;5.75;;
11865;SDS011;5992;52.744;6.898;2023-07-22T05:42:34;8.87;;;6.13;;
11865;SDS011;5992;52.744;6.898;2023-07-22T05:45:46;6.80;;;5.45;;
11865;SDS011;5992;52.744;6.898;2023-07-22T05:48:46;8.77;;;7.23;;
11865;SDS011;5992;52.744;6.898;2023-07-22T05:51:58;7.47;;;5.50;;
11865;SDS011;5992;52.744;6.898;2023-07-22T05:55:00;7.37;;;5.83;;
11865;SDS011;5992;52.744;6.898;2023-07-22T05:58:23;9.15;;;6.10;;
11865;SDS011;5992;52.744;6.898;2023-07-22T06:01:23;8.40;;;6.40;;
11865;SDS011;5992;52.744;6.898;2023-07-22T06:04:51;10.00;;;6.73;;
11865;SDS011;5992;52.744;6.898;2023-07-22T06:07:51;8.35;;;6.45;;
11865;SDS011;5992;52.744;6.898;2023-07-22T06:11:05;8.75;;;6.20;;
11865;SDS011;5992;52.744;6.898;2023-07-22T06:14:17;9.57;;;7.20;;
11865;SDS011;5992;52.744;6.898;2023-07-22T06:17:29;12.43;;;7.63;;
11865;SDS011;5992;52.744;6.898;2023-07-22T06:20:30;9.45;;;6.55;;
11865;SDS011;5992;52.744;6.898;2023-07-22T06:23:42;10.93;;;7.20;;
11865;SDS011;5992;52.744;6.898;2023-07-22T06:26:44;10.80;;;8.40;;
11865;SDS011;5992;52.744;6.898;2023-07-22T06:30:10;9.87;;;6.60;;
11865;SDS011;5992;52.744;6.898;2023-07-22T06:33:21;13.63;;;7.87;;
11865;SDS011;5992;52.744;6.898;2023-07-22T06:36:33;11.33;;;7.90;;
11865;SDS011;5992;52.744;6.898;2023-07-22T06:39:33;9.30;;;6.20;;
11865;SDS011;5992;52.744;6.898;2023-07-22T06:42:47;12.00;;;8.40;;
11865;SDS011;5992;52.744;6.898;2023-07-22T06:45:59;11.20;;;7.80;;
11865;SDS011;5992;52.744;6.898;2023-07-22T06:49:12;10.93;;;7.60;;
11865;SDS011;5992;52.744;6.898;2023-07-22T06:52:13;12.73;;;8.50;;
11865;SDS011;5992;52.744;6.898;2023-07-22T06:55:36;10.50;;;7.13;;
11865;SDS011;5992;52.744;6.898;2023-07-22T06:58:38;12.00;;;8.60;;
11865;SDS011;5992;52.744;6.898;2023-07-22T07:02:04;13.05;;;9.10;;
11865;SDS011;5992;52.744;6.898;2023-07-22T07:05:16;10.43;;;8.40;;
11865;SDS011;5992;52.744;6.898;2023-07-22T07:08:29;10.23;;;7.67;;
11865;SDS011;5992;52.744;6.898;2023-07-22T07:11:29;13.03;;;9.33;;
11865;SDS011;5992;52.744;6.898;2023-07-22T07:14:54;11.73;;;8.20;;
11865;SDS011;5992;52.744;6.898;2023-07-22T07:18:07;10.83;;;7.63;;
11865;SDS011;5992;52.744;6.898;2023-07-22T07:21:19;10.70;;;7.80;;
11865;SDS011;5992;52.744;6.898;2023-07-22T07:24:31;12.40;;;8.70;;
11865;SDS011;5992;52.744;6.898;2023-07-22T07:27:43;11.83;;;8.10;;
11865;SDS011;5992;52.744;6.898;2023-07-22T07:30:44;12.80;;;9.37;;
11865;SDS011;5992;52.744;6.898;2023-07-22T07:34:09;14.60;;;9.27;;
11865;SDS011;5992;52.744;6.898;2023-07-22T07:37:09;12.70;;;8.77;;
11865;SDS011;5992;52.744;6.898;2023-07-22T07:40:21;13.65;;;9.05;;
11865;SDS011;5992;52.744;6.898;2023-07-22T07:43:21;14.77;;;9.70;;
11865;SDS011;5992;52.744;6.898;2023-07-22T07:46:34;12.90;;;9.00;;
11865;SDS011;5992;52.744;6.898;2023-07-22T07:49:35;11.00;;;8.57;;
11865;SDS011;5992;52.744;6.898;2023-07-22T07:52:48;12.50;;;9.20;;
11865;SDS011;5992;52.744;6.898;2023-07-22T07:55:48;12.73;;;8.80;;
11865;SDS011;5992;52.744;6.898;2023-07-22T07:59:01;12.17;;;8.40;;
11865;SDS011;5992;52.744;6.898;2023-07-22T08:02:04;13.00;;;8.57;;
11865;SDS011;5992;52.744;6.898;2023-07-22T08:05:28;11.07;;;8.40;;
11865;SDS011;5992;52.744;6.898;2023-07-22T08:08:28;15.33;;;9.27;;
11865;SDS011;5992;52.744;6.898;2023-07-22T08:11:52;12.03;;;8.63;;
11865;SDS011;5992;52.744;6.898;2023-07-22T08:14:52;10.63;;;8.20;;
11865;SDS011;5992;52.744;6.898;2023-07-22T08:18:17;9.23;;;7.43;;
11865;SDS011;5992;52.744;6.898;2023-07-22T08:21:30;14.17;;;7.63;;
11865;SDS011;5992;52.744;6.898;2023-07-22T08:24:43;10.67;;;8.97;;
11865;SDS011;5992;52.744;6.898;2023-07-22T08:27:43;8.37;;;6.93;;
11865;SDS011;5992;52.744;6.898;2023-07-22T08:30:55;8.43;;;6.70;;
11865;SDS011;5992;52.744;6.898;2023-07-22T08:34:11;8.80;;;6.73;;
11865;SDS011;5992;52.744;6.898;2023-07-22T08:37:35;7.83;;;5.97;;
11865;SDS011;5992;52.744;6.898;2023-07-22T08:40:35;7.40;;;6.20;;
11865;SDS011;5992;52.744;6.898;2023-07-22T08:43:59;8.60;;;6.57;;
11865;SDS011;5992;52.744;6.898;2023-07-22T08:47:13;7.23;;;5.93;;
11865;SDS011;5992;52.744;6.898;2023-07-22T08:50:40;7.57;;;6.17;;
11865;SDS011;5992;52.744;6.898;2023-07-22T08:53:51;9.70;;;6.60;;
11865;SDS011;5992;52.744;6.898;2023-07-22T08:57:15;10.07;;;7.03;;
11865;SDS011;5992;52.744;6.898;2023-07-22T09:00:27;10.67;;;6.50;;
11865;SDS011;5992;52.744;6.898;2023-07-22T09:03:52;6.77;;;5.50;;
11865;SDS011;5992;52.744;6.898;2023-07-22T09:07:05;7.17;;;5.90;;
11865;SDS011;5992;52.744;6.898;2023-07-22T09:10:31;6.70;;;5.80;;
11865;SDS011;5992;52.744;6.898;2023-07-22T09:13:44;6.43;;;5.73;;
11865;SDS011;5992;52.744;6.898;2023-07-22T09:17:08;6.77;;;5.33;;
11865;SDS011;5992;52.744;6.898;2023-07-22T09:20:08;5.83;;;5.20;;
11865;SDS011;5992;52.744;6.898;2023-07-22T09:23:36;7.97;;;5.67;;
11865;SDS011;5992;52.744;6.898;2023-07-22T09:26:48;6.03;;;5.43;;
11865;SDS011;5992;52.744;6.898;2023-07-22T09:30:21;6.43;;;5.57;;
11865;SDS011;5992;52.744;6.898;2023-07-22T09:33:35;7.90;;;5.60;;
11865;SDS011;5992;52.744;6.898;2023-07-22T09:36:57;6.57;;;5.33;;
11865;SDS011;5992;52.744;6.898;2023-07-22T09:40:20;5.43;;;4.93;;
11865;SDS011;5992;52.744;6.898;2023-07-22T09:43:46;10.20;;;5.83;;
11865;SDS011;5992;52.744;6.898;2023-07-22T09:46:55;7.93;;;4.47;;
11865;SDS011;5992;52.744;6.898;2023-07-22T09:50:10;5.07;;;4.37;;
11865;SDS011;5992;52.744;6.898;2023-07-22T09:53:23;5.95;;;4.25;;
11865;SDS011;5992;52.744;6.898;2023-07-22T09:56:44;4.33;;;3.90;;
11865;SDS011;5992;52.744;6.898;2023-07-22T09:59:58;7.47;;;4.27;;
11865;SDS011;5992;52.744;6.898;2023-07-22T10:03:11;4.97;;;3.87;;
11865;SDS011;5992;52.744;6.898;2023-07-22T10:06:23;4.93;;;3.83;;
11865;SDS011;5992;52.744;6.898;2023-07-22T10:09:48;6.40;;;4.90;;
11865;SDS011;5992;52.744;6.898;2023-07-22T10:13:02;5.63;;;4.30;;
11865;SDS011;5992;52.744;6.898;2023-07-22T10:16:27;8.73;;;4.40;;
11865;SDS011;5992;52.744;6.898;2023-07-22T10:19:39;6.20;;;4.85;;
11865;SDS011;5992;52.744;6.898;2023-07-22T10:23:04;7.70;;;4.53;;
11865;SDS011;5992;52.744;6.898;2023-07-22T10:26:16;5.67;;;3.90;;
11865;SDS011;5992;52.744;6.898;2023-07-22T10:29:42;5.17;;;4.37;;
11865;SDS011;5992;52.744;6.898;2023-07-22T10:32:53;6.60;;;4.60;;
11865;SDS011;5992;52.744;6.898;2023-07-22T10:36:18;5.53;;;4.20;;
11865;SDS011;5992;52.744;6.898;2023-07-22T10:39:30;5.47;;;4.47;;
11865;SDS011;5992;52.744;6.898;2023-07-22T10:42:50;9.90;;;4.60;;
11865;SDS011;5992;52.744;6.898;2023-07-22T10:46:06;4.90;;;4.00;;
11865;SDS011;5992;52.744;6.898;2023-07-22T10:49:42;5.20;;;4.70;;
11865;SDS011;5992;52.744;6.898;2023-07-22T10:52:53;7.00;;;4.65;;
11865;SDS011;5992;52.744;6.898;2023-07-22T10:56:19;6.07;;;4.77;;
11865;SDS011;5992;52.744;6.898;2023-07-22T10:59:32;5.73;;;4.53;;
11865;SDS011;5992;52.744;6.898;2023-07-22T11:03:12;6.97;;;4.77;;
11865;SDS011;5992;52.744;6.898;2023-07-22T11:06:24;5.70;;;4.60;;
11865;SDS011;5992;52.744;6.898;2023-07-22T11:09:53;8.20;;;4.87;;
11865;SDS011;5992;52.744;6.898;2023-07-22T11:13:03;6.75;;;4.10;;
11865;SDS011;5992;52.744;6.898;2023-07-22T11:16:17;6.63;;;4.70;;
11865;SDS011;5992;52.744;6.898;2023-07-22T11:19:19;5.47;;;4.43;;
11865;SDS011;5992;52.744;6.898;2023-07-22T11:22:43;5.40;;;4.30;;
11865;SDS011;5992;52.744;6.898;2023-07-22T11:25:44;5.23;;;4.73;;
11865;SDS011;5992;52.744;6.898;2023-07-22T11:29:09;6.80;;;4.63;;
11865;SDS011;5992;52.744;6.898;2023-07-22T11:32:20;5.67;;;4.30;;
11865;SDS011;5992;52.744;6.898;2023-07-22T11:35:35;6.83;;;4.77;;
11865;SDS011;5992;52.744;6.898;2023-07-22T11:38:50;5.90;;;4.63;;
11865;SDS011;5992;52.744;6.898;2023-07-22T11:42:12;8.57;;;5.23;;
11865;SDS011;5992;52.744;6.898;2023-07-22T11:45:12;6.10;;;4.60;;
11865;SDS011;5992;52.744;6.898;2023-07-22T11:48:36;6.30;;;5.30;;
11865;SDS011;5992;52.744;6.898;2023-07-22T11:51:41;7.80;;;5.03;;
11865;SDS011;5992;52.744;6.898;2023-07-22T11:55:04;8.37;;;5.30;;
11865;SDS011;5992;52.744;6.898;2023-07-22T11:58:04;7.23;;;5.00;;
11865;SDS011;5992;52.744;6.898;2023-07-22T12:01:29;4.53;;;4.00;;
11865;SDS011;5992;52.744;6.898;2023-07-22T12:04:55;5.07;;;4.10;;
11865;SDS011;5992;52.744;6.898;2023-07-22T12:08:07;7.93;;;4.57;;
11865;SDS011;5992;52.744;6.898;2023-07-22T12:11:33;4.50;;;3.77;;
11865;SDS011;5992;52.744;6.898;2023-07-22T12:14:44;5.73;;;4.23;;
11865;SDS011;5992;52.744;6.898;2023-07-22T12:17:58;5.00;;;3.87;;
11865;SDS011;5992;52.744;6.898;2023-07-22T12:21:09;6.63;;;4.03;;
11865;SDS011;5992;52.744;6.898;2023-07-22T12:24:26;3.87;;;3.43;;
11865;SDS011;5992;52.744;6.898;2023-07-22T12:27:39;6.43;;;4.13;;
11865;SDS011;5992;52.744;6.898;2023-07-22T12:30:51;4.80;;;3.40;;
11865;SDS011;5992;52.744;6.898;2023-07-22T12:33:51;4.10;;;3.47;;
11865;SDS011;5992;52.744;6.898;2023-07-22T12:37:03;3.83;;;3.40;;
11865;SDS011;5992;52.744;6.898;2023-07-22T12:40:06;5.63;;;4.13;;
11865;SDS011;5992;52.744;6.898;2023-07-22T12:43:31;5.73;;;4.10;;
11865;SDS011;5992;52.744;6.898;2023-07-22T12:46:31;4.40;;;4.00;;
11865;SDS011;5992;52.744;6.898;2023-07-22T12:49:43;4.30;;;3.70;;
11865;SDS011;5992;52.744;6.898;2023-07-22T12:52:43;5.17;;;4.37;;
11865;SDS011;5992;52.744;6.898;2023-07-22T12:55:57;3.80;;;3.40;;
11865;SDS011;5992;52.744;6.898;2023-07-22T12:59:10;6.13;;;3.83;;
11865;SDS011;5992;52.744;6.898;2023-07-22T13:02:23;4.73;;;3.53;;
11865;SDS011;5992;52.744;6.898;2023-07-22T13:05:23;4.37;;;4.00;;
11865;SDS011;5992;52.744;6.898;2023-07-22T13:08:47;7.33;;;3.73;;
11865;SDS011;5992;52.744;6.898;2023-07-22T13:11:48;4.67;;;3.63;;
11865;SDS011;5992;52.744;6.898;2023-07-22T13:15:14;3.87;;;3.57;;
11865;SDS011;5992;52.744;6.898;2023-07-22T13:18:26;5.03;;;3.43;;
11865;SDS011;5992;52.744;6.898;2023-07-22T13:21:38;4.13;;;3.53;;
11865;SDS011;5992;52.744;6.898;2023-07-22T13:24:38;4.90;;;3.63;;
11865;SDS011;5992;52.744;6.898;2023-07-22T13:27:52;4.73;;;2.50;;
11865;SDS011;5992;52.744;6.898;2023-07-22T13:31:05;5.20;;;3.13;;
11865;SDS011;5992;52.744;6.898;2023-07-22T13:34:17;2.97;;;2.77;;
11865;SDS011;5992;52.744;6.898;2023-07-22T13:37:17;3.63;;;2.80;;
11865;SDS011;5992;52.744;6.898;2023-07-22T13:40:29;3.50;;;3.20;;
11865;SDS011;5992;52.744;6.898;2023-07-22T13:43:30;3.87;;;3.50;;
11865;SDS011;5992;52.744;6.898;2023-07-22T13:46:55;3.60;;;3.30;;
11865;SDS011;5992;52.744;6.898;2023-07-22T13:49:55;5.23;;;3.17;;
11865;SDS011;5992;52.744;6.898;2023-07-22T13:53:07;3.43;;;3.10;;
11865;SDS011;5992;52.744;6.898;2023-07-22T13:56:07;3.90;;;3.50;;
11865;SDS011;5992;52.744;6.898;2023-07-22T13:59:20;3.73;;;3.40;;
11865;SDS011;5992;52.744;6.898;2023-07-22T14:02:33;3.43;;;3.10;;
11865;SDS011;5992;52.744;6.898;2023-07-22T14:05:45;4.60;;;3.83;;
11865;SDS011;5992;52.744;6.898;2023-07-22T14:08:57;2.97;;;2.67;;
11865;SDS011;5992;52.744;6.898;2023-07-22T14:12:09;4.13;;;3.73;;
11865;SDS011;5992;52.744;6.898;2023-07-22T14:15:11;3.00;;;2.80;;
11865;SDS011;5992;52.744;6.898;2023-07-22T14:18:35;4.03;;;3.63;;
11865;SDS011;5992;52.744;6.898;2023-07-22T14:21:35;6.97;;;3.87;;
11865;SDS011;5992;52.744;6.898;2023-07-22T14:24:48;4.10;;;3.50;;
11865;SDS011;5992;52.744;6.898;2023-07-22T14:27:48;3.80;;;3.50;;
11865;SDS011;5992;52.744;6.898;2023-07-22T14:31:03;4.60;;;4.20;;
11865;SDS011;5992;52.744;6.898;2023-07-22T14:34:16;5.13;;;4.27;;
11865;SDS011;5992;52.744;6.898;2023-07-22T14:37:28;6.30;;;3.73;;
11865;SDS011;5992;52.744;6.898;2023-07-22T14:40:28;6.60;;;4.30;;
11865;SDS011;5992;52.744;6.898;2023-07-22T14:43:55;4.77;;;4.37;;
11865;SDS011;5992;52.744;6.898;2023-07-22T14:46:56;5.83;;;4.13;;
11865;SDS011;5992;52.744;6.898;2023-07-22T14:50:21;6.47;;;4.70;;
11865;SDS011;5992;52.744;6.898;2023-07-22T14:53:33;4.73;;;4.40;;
11865;SDS011;5992;52.744;6.898;2023-07-22T14:56:46;5.30;;;4.30;;
11865;SDS011;5992;52.744;6.898;2023-07-22T14:59:46;4.90;;;4.30;;
11865;SDS011;5992;52.744;6.898;2023-07-22T15:02:59;6.07;;;3.90;;
11865;SDS011;5992;52.744;6.898;2023-07-22T15:06:12;4.23;;;3.93;;
11865;SDS011;5992;52.744;6.898;2023-07-22T15:09:25;5.37;;;3.97;;
11865;SDS011;5992;52.744;6.898;2023-07-22T15:12:37;4.60;;;4.10;;
11865;SDS011;5992;52.744;6.898;2023-07-22T15:15:52;4.40;;;3.97;;
11865;SDS011;5992;52.744;6.898;2023-07-22T15:19:04;5.07;;;4.00;;
11865;SDS011;5992;52.744;6.898;2023-07-22T15:22:30;6.43;;;4.07;;
11865;SDS011;5992;52.744;6.898;2023-07-22T15:25:30;4.70;;;3.50;;
11865;SDS011;5992;52.744;6.898;2023-07-22T15:28:42;5.97;;;3.50;;
11865;SDS011;5992;52.744;6.898;2023-07-22T15:31:42;7.27;;;3.87;;
11865;SDS011;5992;52.744;6.898;2023-07-22T15:34:56;5.07;;;3.77;;
11865;SDS011;5992;52.744;6.898;2023-07-22T15:38:09;4.80;;;4.20;;
11865;SDS011;5992;52.744;6.898;2023-07-22T15:41:22;4.67;;;3.53;;
11865;SDS011;5992;52.744;6.898;2023-07-22T15:44:22;6.35;;;3.55;;
11865;SDS011;5992;52.744;6.898;2023-07-22T15:47:34;3.87;;;3.50;;
11865;SDS011;5992;52.744;6.898;2023-07-22T15:50:37;4.27;;;3.87;;
11865;SDS011;5992;52.744;6.898;2023-07-22T15:54:01;5.47;;;3.83;;
11865;SDS011;5992;52.744;6.898;2023-07-22T15:57:01;4.17;;;3.77;;
11865;SDS011;5992;52.744;6.898;2023-07-22T16:00:13;4.37;;;3.63;;
11865;SDS011;5992;52.744;6.898;2023-07-22T16:03:37;4.47;;;3.80;;
11865;SDS011;5992;52.744;6.898;2023-07-22T16:06:39;4.67;;;3.60;;
11865;SDS011;5992;52.744;6.898;2023-07-22T16:10:05;4.33;;;3.93;;
11865;SDS011;5992;52.744;6.898;2023-07-22T16:13:17;4.03;;;3.73;;
11865;SDS011;5992;52.744;6.898;2023-07-22T16:16:29;6.23;;;4.00;;
11865;SDS011;5992;52.744;6.898;2023-07-22T16:19:32;5.00;;;3.90;;
11865;SDS011;5992;52.744;6.898;2023-07-22T16:22:47;6.47;;;3.67;;
11865;SDS011;5992;52.744;6.898;2023-07-22T16:26:11;4.30;;;3.87;;
11865;SDS011;5992;52.744;6.898;2023-07-22T16:29:24;4.30;;;3.90;;
11865;SDS011;5992;52.744;6.898;2023-07-22T16:32:24;5.43;;;4.10;;
11865;SDS011;5992;52.744;6.898;2023-07-22T16:35:37;4.80;;;3.73;;
11865;SDS011;5992;52.744;6.898;2023-07-22T16:38:39;4.93;;;3.90;;
11865;SDS011;5992;52.744;6.898;2023-07-22T16:42:04;4.10;;;3.67;;
11865;SDS011;5992;52.744;6.898;2023-07-22T16:45:05;4.63;;;3.40;;
11865;SDS011;5992;52.744;6.898;2023-07-22T16:48:29;4.50;;;4.07;;
11865;SDS011;5992;52.744;6.898;2023-07-22T16:51:29;4.23;;;3.83;;
11865;SDS011;5992;52.744;6.898;2023-07-22T16:54:44;4.10;;;3.80;;
11865;SDS011;5992;52.744;6.898;2023-07-22T16:57:56;6.27;;;3.93;;
11865;SDS011;5992;52.744;6.898;2023-07-22T17:01:08;6.43;;;3.77;;
11865;SDS011;5992;52.744;6.898;2023-07-22T17:04:08;3.73;;;3.43;;
11865;SDS011;5992;52.744;6.898;2023-07-22T17:07:21;3.95;;;3.65;;
11865;SDS011;5992;52.744;6.898;2023-07-22T17:10:23;4.10;;;3.60;;
11865;SDS011;5992;52.744;6.898;2023-07-22T17:13:48;6.65;;;4.30;;
11865;SDS011;5992;52.744;6.898;2023-07-22T17:16:49;7.67;;;3.53;;
11865;SDS011;5992;52.744;6.898;2023-07-22T17:20:02;5.83;;;3.70;;
11865;SDS011;5992;52.744;6.898;2023-07-22T17:23:02;4.17;;;3.87;;
11865;SDS011;5992;52.744;6.898;2023-07-22T17:26:16;5.13;;;3.97;;
11865;SDS011;5992;52.744;6.898;2023-07-22T17:29:28;4.23;;;3.80;;
11865;SDS011;5992;52.744;6.898;2023-07-22T17:32:41;6.60;;;3.95;;
11865;SDS011;5992;52.744;6.898;2023-07-22T17:35:42;3.73;;;3.43;;
11865;SDS011;5992;52.744;6.898;2023-07-22T17:39:06;4.80;;;4.20;;
11865;SDS011;5992;52.744;6.898;2023-07-22T17:42:07;4.80;;;3.87;;
11865;SDS011;5992;52.744;6.898;2023-07-22T17:45:32;5.90;;;4.60;;
11865;SDS011;5992;52.744;6.898;2023-07-22T17:48:43;4.20;;;3.80;;
11865;SDS011;5992;52.744;6.898;2023-07-22T17:51:56;4.37;;;3.87;;
11865;SDS011;5992;52.744;6.898;2023-07-22T17:54:56;4.30;;;3.90;;
11865;SDS011;5992;52.744;6.898;2023-07-22T17:58:09;4.60;;;4.10;;
11865;SDS011;5992;52.744;6.898;2023-07-22T18:01:22;8.50;;;4.40;;
11865;SDS011;5992;52.744;6.898;2023-07-22T18:04:34;3.20;;;2.90;;
11865;SDS011;5992;52.744;6.898;2023-07-22T18:07:46;3.67;;;3.37;;
11865;SDS011;5992;52.744;6.898;2023-07-22T18:10:58;5.10;;;3.53;;
11865;SDS011;5992;52.744;6.898;2023-07-22T18:13:59;3.90;;;3.53;;
11865;SDS011;5992;52.744;6.898;2023-07-22T18:17:24;4.03;;;3.03;;
11865;SDS011;5992;52.744;6.898;2023-07-22T18:20:24;3.97;;;3.57;;
11865;SDS011;5992;52.744;6.898;2023-07-22T18:23:37;4.30;;;3.50;;
11865;SDS011;5992;52.744;6.898;2023-07-22T18:26:37;4.60;;;3.50;;
11865;SDS011;5992;52.744;6.898;2023-07-22T18:29:51;5.50;;;3.70;;
11865;SDS011;5992;52.744;6.898;2023-07-22T18:33:04;9.17;;;3.97;;
11865;SDS011;5992;52.744;6.898;2023-07-22T18:36:17;5.97;;;3.40;;
11865;SDS011;5992;52.744;6.898;2023-07-22T18:39:18;4.60;;;3.53;;
11865;SDS011;5992;52.744;6.898;2023-07-22T18:42:31;3.60;;;3.10;;
11865;SDS011;5992;52.744;6.898;2023-07-22T18:45:32;6.60;;;3.63;;
11865;SDS011;5992;52.744;6.898;2023-07-22T18:48:56;4.37;;;3.00;;
11865;SDS011;5992;52.744;6.898;2023-07-22T18:51:56;4.07;;;3.23;;
11865;SDS011;5992;52.744;6.898;2023-07-22T18:55:08;4.50;;;3.00;;
11865;SDS011;5992;52.744;6.898;2023-07-22T18:58:08;3.53;;;3.23;;
11865;SDS011;5992;52.744;6.898;2023-07-22T19:01:22;4.80;;;3.50;;
11865;SDS011;5992;52.744;6.898;2023-07-22T19:04:36;3.90;;;3.50;;
11865;SDS011;5992;52.744;6.898;2023-07-22T19:07:49;5.07;;;4.00;;
11865;SDS011;5992;52.744;6.898;2023-07-22T19:10:49;9.15;;;3.65;;
11865;SDS011;5992;52.744;6.898;2023-07-22T19:14:15;4.40;;;3.70;;
11865;SDS011;5992;52.744;6.898;2023-07-22T19:17:16;4.73;;;3.50;;
11865;SDS011;5992;52.744;6.898;2023-07-22T19:20:41;4.27;;;3.07;;
11865;SDS011;5992;52.744;6.898;2023-07-22T19:23:41;6.07;;;3.60;;
11865;SDS011;5992;52.744;6.898;2023-07-22T19:26:54;3.40;;;3.10;;
11865;SDS011;5992;52.744;6.898;2023-07-22T19:29:54;4.30;;;3.05;;
11865;SDS011;5992;52.744;6.898;2023-07-22T19:33:12;5.53;;;3.53;;